sensor_id;sensor_type;location;lat;lon;timestamp;P1;durP1;ratioP1;P2;durP2;ratioP2
77740;SDS011;66919;51.006;4.630;2024-01-30T00:01:37;7.68;;;6.18;;
77740;SDS011;66919;51.006;4.630;2024-01-30T00:04:02;8.60;;;6.40;;
77740;SDS011;66919;51.006;4.630;2024-01-30T00:06:28;9.43;;;5.80;;
77740;SDS011;66919;51.006;4.630;2024-01-30T00:08:54;9.63;;;6.22;;
77740;SDS011;66919;51.006;4.630;2024-01-30T00:11:19;9.40;;;6.40;;
77740;SDS011;66919;51.006;4.630;2024-01-30T00:13:46;9.43;;;5.97;;
77740;SDS011;66919;51.006;4.630;2024-01-30T00:16:21;8.32;;;5.65;;
77740;SDS011;66919;51.006;4.630;2024-01-30T00:18:47;11.38;;;6.72;;
77740;SDS011;66919;51.006;4.630;2024-01-30T00:21:13;10.77;;;6.18;;
77740;SDS011;66919;51.006;4.630;2024-01-30T00:23:39;10.65;;;6.28;;
77740;SDS011;66919;51.006;4.630;2024-01-30T00:26:04;9.25;;;6.60;;
77740;SDS011;66919;51.006;4.630;2024-01-30T00:28:31;10.90;;;5.65;;
77740;SDS011;66919;51.006;4.630;2024-01-30T00:30:56;7.05;;;5.35;;
77740;SDS011;66919;51.006;4.630;2024-01-30T00:33:22;8.20;;;5.97;;
77740;SDS011;66919;51.006;4.630;2024-01-30T00:35:48;8.70;;;5.68;;
77740;SDS011;66919;51.006;4.630;2024-01-30T00:38:13;9.88;;;6.28;;
77740;SDS011;66919;51.006;4.630;2024-01-30T00:40:39;10.68;;;6.25;;
77740;SDS011;66919;51.006;4.630;2024-01-30T00:43:04;11.18;;;5.72;;
77740;SDS011;66919;51.006;4.630;2024-01-30T00:45:30;8.32;;;5.53;;
77740;SDS011;66919;51.006;4.630;2024-01-30T00:47:56;10.13;;;5.47;;
77740;SDS011;66919;51.006;4.630;2024-01-30T00:50:21;7.10;;;5.85;;
77740;SDS011;66919;51.006;4.630;2024-01-30T00:52:47;6.90;;;5.25;;
77740;SDS011;66919;51.006;4.630;2024-01-30T00:55:13;7.82;;;5.88;;
77740;SDS011;66919;51.006;4.630;2024-01-30T00:57:39;6.85;;;4.88;;
77740;SDS011;66919;51.006;4.630;2024-01-30T01:00:05;7.78;;;6.05;;
77740;SDS011;66919;51.006;4.630;2024-01-30T01:02:33;8.73;;;5.65;;
77740;SDS011;66919;51.006;4.630;2024-01-30T01:05:04;8.15;;;5.05;;
77740;SDS011;66919;51.006;4.630;2024-01-30T01:07:29;7.57;;;5.47;;
77740;SDS011;66919;51.006;4.630;2024-01-30T01:09:55;10.43;;;5.57;;
77740;SDS011;66919;51.006;4.630;2024-01-30T01:12:21;6.10;;;5.15;;
77740;SDS011;66919;51.006;4.630;2024-01-30T01:14:47;9.00;;;5.82;;
77740;SDS011;66919;51.006;4.630;2024-01-30T01:17:12;8.95;;;5.63;;
77740;SDS011;66919;51.006;4.630;2024-01-30T01:19:38;7.60;;;5.40;;
77740;SDS011;66919;51.006;4.630;2024-01-30T01:22:03;6.75;;;5.40;;
77740;SDS011;66919;51.006;4.630;2024-01-30T01:24:30;6.97;;;5.38;;
77740;SDS011;66919;51.006;4.630;2024-01-30T01:26:58;9.93;;;5.70;;
77740;SDS011;66919;51.006;4.630;2024-01-30T01:29:24;6.68;;;4.95;;
77740;SDS011;66919;51.006;4.630;2024-01-30T01:31:54;8.68;;;5.80;;
77740;SDS011;66919;51.006;4.630;2024-01-30T01:34:21;8.65;;;5.32;;
77740;SDS011;66919;51.006;4.630;2024-01-30T01:36:46;7.78;;;5.07;;
77740;SDS011;66919;51.006;4.630;2024-01-30T01:39:12;6.68;;;4.93;;
77740;SDS011;66919;51.006;4.630;2024-01-30T01:41:38;7.57;;;5.07;;
77740;SDS011;66919;51.006;4.630;2024-01-30T01:44:03;8.35;;;5.05;;
77740;SDS011;66919;51.006;4.630;2024-01-30T01:46:30;8.43;;;5.25;;
77740;SDS011;66919;51.006;4.630;2024-01-30T01:48:58;8.68;;;5.00;;
77740;SDS011;66919;51.006;4.630;2024-01-30T01:51:25;10.65;;;5.15;;
77740;SDS011;66919;51.006;4.630;2024-01-30T01:53:53;7.25;;;4.80;;
77740;SDS011;66919;51.006;4.630;2024-01-30T01:56:21;13.43;;;5.60;;
77740;SDS011;66919;51.006;4.630;2024-01-30T01:58:50;9.55;;;5.45;;
77740;SDS011;66919;51.006;4.630;2024-01-30T02:01:19;8.57;;;5.32;;
77740;SDS011;66919;51.006;4.630;2024-01-30T02:03:46;7.85;;;5.05;;
77740;SDS011;66919;51.006;4.630;2024-01-30T02:06:13;9.00;;;5.40;;
77740;SDS011;66919;51.006;4.630;2024-01-30T02:08:39;7.10;;;5.00;;
77740;SDS011;66919;51.006;4.630;2024-01-30T02:11:05;8.63;;;5.90;;
77740;SDS011;66919;51.006;4.630;2024-01-30T02:13:31;6.05;;;5.25;;
77740;SDS011;66919;51.006;4.630;2024-01-30T02:15:57;8.48;;;5.43;;
77740;SDS011;66919;51.006;4.630;2024-01-30T02:18:22;5.85;;;4.95;;
77740;SDS011;66919;51.006;4.630;2024-01-30T02:20:48;7.57;;;5.32;;
77740;SDS011;66919;51.006;4.630;2024-01-30T02:23:15;9.65;;;5.90;;
77740;SDS011;66919;51.006;4.630;2024-01-30T02:25:41;7.97;;;5.10;;
77740;SDS011;66919;51.006;4.630;2024-01-30T02:28:10;9.43;;;5.78;;
77740;SDS011;66919;51.006;4.630;2024-01-30T02:30:37;6.90;;;5.13;;
77740;SDS011;66919;51.006;4.630;2024-01-30T02:33:03;6.35;;;5.20;;
77740;SDS011;66919;51.006;4.630;2024-01-30T02:35:29;8.68;;;5.30;;
77740;SDS011;66919;51.006;4.630;2024-01-30T02:37:54;7.95;;;5.43;;
77740;SDS011;66919;51.006;4.630;2024-01-30T02:40:20;8.70;;;5.30;;
77740;SDS011;66919;51.006;4.630;2024-01-30T02:42:46;6.60;;;5.03;;
77740;SDS011;66919;51.006;4.630;2024-01-30T02:45:11;6.90;;;5.45;;
77740;SDS011;66919;51.006;4.630;2024-01-30T02:47:38;7.85;;;5.25;;
77740;SDS011;66919;51.006;4.630;2024-01-30T02:50:04;8.73;;;5.55;;
77740;SDS011;66919;51.006;4.630;2024-01-30T02:52:30;7.60;;;5.28;;
77740;SDS011;66919;51.006;4.630;2024-01-30T02:54:56;7.90;;;5.50;;
77740;SDS011;66919;51.006;4.630;2024-01-30T02:57:22;8.45;;;5.65;;
77740;SDS011;66919;51.006;4.630;2024-01-30T02:59:47;7.95;;;5.10;;
77740;SDS011;66919;51.006;4.630;2024-01-30T03:02:13;7.78;;;5.53;;
77740;SDS011;66919;51.006;4.630;2024-01-30T03:04:40;6.18;;;5.13;;
77740;SDS011;66919;51.006;4.630;2024-01-30T03:07:06;7.50;;;5.78;;
77740;SDS011;66919;51.006;4.630;2024-01-30T03:09:32;7.70;;;5.95;;
77740;SDS011;66919;51.006;4.630;2024-01-30T03:11:58;12.52;;;6.40;;
77740;SDS011;66919;51.006;4.630;2024-01-30T03:14:24;11.70;;;5.80;;
77740;SDS011;66919;51.006;4.630;2024-01-30T03:16:49;6.38;;;5.40;;
77740;SDS011;66919;51.006;4.630;2024-01-30T03:19:15;6.45;;;5.25;;
77740;SDS011;66919;51.006;4.630;2024-01-30T03:21:40;6.32;;;5.28;;
77740;SDS011;66919;51.006;4.630;2024-01-30T03:24:06;8.98;;;5.32;;
77740;SDS011;66919;51.006;4.630;2024-01-30T03:26:32;8.73;;;5.35;;
77740;SDS011;66919;51.006;4.630;2024-01-30T03:28:57;10.27;;;4.85;;
77740;SDS011;66919;51.006;4.630;2024-01-30T03:31:23;7.80;;;5.35;;
77740;SDS011;66919;51.006;4.630;2024-01-30T03:33:49;7.40;;;5.10;;
77740;SDS011;66919;51.006;4.630;2024-01-30T03:36:15;8.60;;;5.60;;
77740;SDS011;66919;51.006;4.630;2024-01-30T03:38:41;8.35;;;5.57;;
77740;SDS011;66919;51.006;4.630;2024-01-30T03:41:07;10.15;;;5.70;;
77740;SDS011;66919;51.006;4.630;2024-01-30T03:43:34;12.60;;;6.35;;
77740;SDS011;66919;51.006;4.630;2024-01-30T03:46:00;7.70;;;5.05;;
77740;SDS011;66919;51.006;4.630;2024-01-30T03:48:27;8.02;;;5.47;;
77740;SDS011;66919;51.006;4.630;2024-01-30T03:50:53;11.82;;;5.85;;
77740;SDS011;66919;51.006;4.630;2024-01-30T03:53:19;8.40;;;5.75;;
77740;SDS011;66919;51.006;4.630;2024-01-30T03:55:44;7.25;;;5.38;;
77740;SDS011;66919;51.006;4.630;2024-01-30T03:58:10;9.60;;;4.80;;
77740;SDS011;66919;51.006;4.630;2024-01-30T04:00:36;7.07;;;4.70;;
77740;SDS011;66919;51.006;4.630;2024-01-30T04:03:02;6.88;;;5.03;;
77740;SDS011;66919;51.006;4.630;2024-01-30T04:05:27;8.48;;;5.03;;
77740;SDS011;66919;51.006;4.630;2024-01-30T04:07:53;6.43;;;4.68;;
77740;SDS011;66919;51.006;4.630;2024-01-30T04:10:19;6.72;;;4.80;;
77740;SDS011;66919;51.006;4.630;2024-01-30T04:12:44;6.88;;;4.75;;
77740;SDS011;66919;51.006;4.630;2024-01-30T04:15:10;5.22;;;3.95;;
77740;SDS011;66919;51.006;4.630;2024-01-30T04:17:35;9.38;;;5.57;;
77740;SDS011;66919;51.006;4.630;2024-01-30T04:20:01;7.85;;;4.47;;
77740;SDS011;66919;51.006;4.630;2024-01-30T04:22:27;8.15;;;5.45;;
77740;SDS011;66919;51.006;4.630;2024-01-30T04:24:53;6.72;;;5.13;;
77740;SDS011;66919;51.006;4.630;2024-01-30T04:27:18;6.65;;;4.75;;
77740;SDS011;66919;51.006;4.630;2024-01-30T04:29:44;7.88;;;4.70;;
77740;SDS011;66919;51.006;4.630;2024-01-30T04:32:09;7.32;;;4.97;;
77740;SDS011;66919;51.006;4.630;2024-01-30T04:34:36;8.75;;;5.22;;
77740;SDS011;66919;51.006;4.630;2024-01-30T04:37:02;6.53;;;4.97;;
77740;SDS011;66919;51.006;4.630;2024-01-30T04:39:28;6.93;;;4.85;;
77740;SDS011;66919;51.006;4.630;2024-01-30T04:41:53;6.05;;;4.95;;
77740;SDS011;66919;51.006;4.630;2024-01-30T04:44:19;6.90;;;4.70;;
77740;SDS011;66919;51.006;4.630;2024-01-30T04:46:45;6.50;;;4.72;;
77740;SDS011;66919;51.006;4.630;2024-01-30T04:49:10;7.45;;;4.72;;
77740;SDS011;66919;51.006;4.630;2024-01-30T04:51:36;9.10;;;4.85;;
77740;SDS011;66919;51.006;4.630;2024-01-30T04:54:02;8.00;;;4.95;;
77740;SDS011;66919;51.006;4.630;2024-01-30T04:56:27;9.73;;;4.88;;
77740;SDS011;66919;51.006;4.630;2024-01-30T04:58:53;8.38;;;4.82;;
77740;SDS011;66919;51.006;4.630;2024-01-30T05:01:18;8.88;;;5.22;;
77740;SDS011;66919;51.006;4.630;2024-01-30T05:03:44;7.20;;;4.72;;
77740;SDS011;66919;51.006;4.630;2024-01-30T05:06:10;5.90;;;4.60;;
77740;SDS011;66919;51.006;4.630;2024-01-30T05:08:35;6.95;;;4.63;;
77740;SDS011;66919;51.006;4.630;2024-01-30T05:11:05;8.65;;;5.50;;
77740;SDS011;66919;51.006;4.630;2024-01-30T05:13:31;7.93;;;5.25;;
77740;SDS011;66919;51.006;4.630;2024-01-30T05:15:56;7.75;;;5.30;;
77740;SDS011;66919;51.006;4.630;2024-01-30T05:18:22;7.85;;;4.93;;
77740;SDS011;66919;51.006;4.630;2024-01-30T05:20:49;11.77;;;5.55;;
77740;SDS011;66919;51.006;4.630;2024-01-30T05:23:15;7.00;;;5.20;;
77740;SDS011;66919;51.006;4.630;2024-01-30T05:25:41;9.68;;;5.40;;
77740;SDS011;66919;51.006;4.630;2024-01-30T05:28:07;6.13;;;4.70;;
77740;SDS011;66919;51.006;4.630;2024-01-30T05:30:32;7.93;;;5.57;;
77740;SDS011;66919;51.006;4.630;2024-01-30T05:32:58;7.47;;;5.00;;
77740;SDS011;66919;51.006;4.630;2024-01-30T05:35:23;8.30;;;5.20;;
77740;SDS011;66919;51.006;4.630;2024-01-30T05:37:49;6.85;;;4.85;;
77740;SDS011;66919;51.006;4.630;2024-01-30T05:40:15;7.93;;;5.13;;
77740;SDS011;66919;51.006;4.630;2024-01-30T05:42:41;9.73;;;5.32;;
77740;SDS011;66919;51.006;4.630;2024-01-30T05:45:07;7.30;;;4.88;;
77740;SDS011;66919;51.006;4.630;2024-01-30T05:47:33;10.75;;;5.28;;
77740;SDS011;66919;51.006;4.630;2024-01-30T05:49:59;7.40;;;5.72;;
77740;SDS011;66919;51.006;4.630;2024-01-30T05:52:25;6.38;;;5.05;;
77740;SDS011;66919;51.006;4.630;2024-01-30T05:54:50;9.10;;;5.22;;
77740;SDS011;66919;51.006;4.630;2024-01-30T05:57:16;8.32;;;7.40;;
77740;SDS011;66919;51.006;4.630;2024-01-30T05:59:42;14.88;;;10.93;;
77740;SDS011;66919;51.006;4.630;2024-01-30T06:02:10;12.40;;;10.43;;
77740;SDS011;66919;51.006;4.630;2024-01-30T06:04:36;7.63;;;5.88;;
77740;SDS011;66919;51.006;4.630;2024-01-30T06:07:01;7.03;;;4.90;;
77740;SDS011;66919;51.006;4.630;2024-01-30T06:09:27;9.30;;;8.13;;
77740;SDS011;66919;51.006;4.630;2024-01-30T06:11:54;8.32;;;5.70;;
77740;SDS011;66919;51.006;4.630;2024-01-30T06:14:20;8.18;;;5.95;;
77740;SDS011;66919;51.006;4.630;2024-01-30T06:16:45;7.10;;;5.47;;
77740;SDS011;66919;51.006;4.630;2024-01-30T06:19:11;17.05;;;15.50;;
77740;SDS011;66919;51.006;4.630;2024-01-30T06:21:37;9.07;;;5.40;;
77740;SDS011;66919;51.006;4.630;2024-01-30T06:24:03;5.60;;;5.03;;
77740;SDS011;66919;51.006;4.630;2024-01-30T06:26:29;6.93;;;5.40;;
77740;SDS011;66919;51.006;4.630;2024-01-30T06:28:55;6.22;;;4.90;;
77740;SDS011;66919;51.006;4.630;2024-01-30T06:31:21;7.05;;;5.30;;
77740;SDS011;66919;51.006;4.630;2024-01-30T06:33:47;8.90;;;5.32;;
77740;SDS011;66919;51.006;4.630;2024-01-30T06:36:12;10.82;;;5.40;;
77740;SDS011;66919;51.006;4.630;2024-01-30T06:38:38;10.85;;;7.13;;
77740;SDS011;66919;51.006;4.630;2024-01-30T06:41:04;8.90;;;5.43;;
77740;SDS011;66919;51.006;4.630;2024-01-30T06:43:30;6.70;;;5.60;;
77740;SDS011;66919;51.006;4.630;2024-01-30T06:45:57;7.65;;;5.90;;
77740;SDS011;66919;51.006;4.630;2024-01-30T06:48:23;9.40;;;5.60;;
77740;SDS011;66919;51.006;4.630;2024-01-30T06:50:48;9.65;;;6.18;;
77740;SDS011;66919;51.006;4.630;2024-01-30T06:53:15;9.15;;;5.55;;
77740;SDS011;66919;51.006;4.630;2024-01-30T06:55:41;180.23;;;54.55;;
77740;SDS011;66919;51.006;4.630;2024-01-30T06:58:07;204.30;;;129.00;;
77740;SDS011;66919;51.006;4.630;2024-01-30T07:00:32;68.85;;;40.05;;
77740;SDS011;66919;51.006;4.630;2024-01-30T07:02:58;7.70;;;5.57;;
77740;SDS011;66919;51.006;4.630;2024-01-30T07:05:23;8.20;;;6.00;;
77740;SDS011;66919;51.006;4.630;2024-01-30T07:07:49;8.52;;;5.68;;
77740;SDS011;66919;51.006;4.630;2024-01-30T07:10:14;8.38;;;5.57;;
77740;SDS011;66919;51.006;4.630;2024-01-30T07:12:40;15.43;;;5.85;;
77740;SDS011;66919;51.006;4.630;2024-01-30T07:15:06;7.25;;;4.97;;
77740;SDS011;66919;51.006;4.630;2024-01-30T07:17:35;7.18;;;5.10;;
77740;SDS011;66919;51.006;4.630;2024-01-30T07:20:00;9.38;;;5.45;;
77740;SDS011;66919;51.006;4.630;2024-01-30T07:22:28;6.90;;;5.38;;
77740;SDS011;66919;51.006;4.630;2024-01-30T07:24:55;8.75;;;4.68;;
77740;SDS011;66919;51.006;4.630;2024-01-30T07:27:21;12.40;;;5.78;;
77740;SDS011;66919;51.006;4.630;2024-01-30T07:29:46;8.80;;;5.10;;
77740;SDS011;66919;51.006;4.630;2024-01-30T07:32:12;8.82;;;5.47;;
77740;SDS011;66919;51.006;4.630;2024-01-30T07:34:38;8.85;;;5.60;;
77740;SDS011;66919;51.006;4.630;2024-01-30T07:37:03;9.68;;;5.75;;
77740;SDS011;66919;51.006;4.630;2024-01-30T07:39:29;7.70;;;5.13;;
77740;SDS011;66919;51.006;4.630;2024-01-30T07:41:55;11.07;;;5.75;;
77740;SDS011;66919;51.006;4.630;2024-01-30T07:44:20;9.50;;;5.80;;
77740;SDS011;66919;51.006;4.630;2024-01-30T07:46:48;9.63;;;5.30;;
77740;SDS011;66919;51.006;4.630;2024-01-30T07:49:14;11.07;;;5.40;;
77740;SDS011;66919;51.006;4.630;2024-01-30T07:51:39;8.43;;;5.07;;
77740;SDS011;66919;51.006;4.630;2024-01-30T07:54:05;10.82;;;5.45;;
77740;SDS011;66919;51.006;4.630;2024-01-30T07:56:31;16.85;;;5.55;;
77740;SDS011;66919;51.006;4.630;2024-01-30T07:58:56;7.97;;;5.10;;
77740;SDS011;66919;51.006;4.630;2024-01-30T08:01:22;8.05;;;5.15;;
77740;SDS011;66919;51.006;4.630;2024-01-30T08:03:47;7.45;;;5.25;;
77740;SDS011;66919;51.006;4.630;2024-01-30T08:06:13;9.50;;;5.25;;
77740;SDS011;66919;51.006;4.630;2024-01-30T08:08:39;9.82;;;6.03;;
77740;SDS011;66919;51.006;4.630;2024-01-30T08:11:04;12.88;;;5.45;;
77740;SDS011;66919;51.006;4.630;2024-01-30T08:13:30;6.55;;;5.10;;
77740;SDS011;66919;51.006;4.630;2024-01-30T08:15:56;7.22;;;4.95;;
77740;SDS011;66919;51.006;4.630;2024-01-30T08:18:21;8.18;;;5.50;;
77740;SDS011;66919;51.006;4.630;2024-01-30T08:20:47;10.68;;;5.45;;
77740;SDS011;66919;51.006;4.630;2024-01-30T08:23:14;10.30;;;5.63;;
77740;SDS011;66919;51.006;4.630;2024-01-30T08:25:39;8.40;;;5.72;;
77740;SDS011;66919;51.006;4.630;2024-01-30T08:28:05;8.20;;;5.47;;
77740;SDS011;66919;51.006;4.630;2024-01-30T08:30:32;9.95;;;5.32;;
77740;SDS011;66919;51.006;4.630;2024-01-30T08:32:58;16.13;;;9.80;;
77740;SDS011;66919;51.006;4.630;2024-01-30T08:35:23;14.85;;;8.13;;
77740;SDS011;66919;51.006;4.630;2024-01-30T08:37:49;13.18;;;8.25;;
77740;SDS011;66919;51.006;4.630;2024-01-30T08:40:14;15.95;;;8.43;;
77740;SDS011;66919;51.006;4.630;2024-01-30T08:42:40;10.43;;;5.18;;
77740;SDS011;66919;51.006;4.630;2024-01-30T08:45:06;14.57;;;6.38;;
77740;SDS011;66919;51.006;4.630;2024-01-30T08:47:32;16.42;;;7.20;;
77740;SDS011;66919;51.006;4.630;2024-01-30T08:49:58;15.88;;;5.95;;
77740;SDS011;66919;51.006;4.630;2024-01-30T08:52:24;11.90;;;6.63;;
77740;SDS011;66919;51.006;4.630;2024-01-30T08:54:49;13.00;;;6.78;;
77740;SDS011;66919;51.006;4.630;2024-01-30T08:57:16;12.18;;;6.18;;
77740;SDS011;66919;51.006;4.630;2024-01-30T08:59:41;11.13;;;5.85;;
77740;SDS011;66919;51.006;4.630;2024-01-30T09:02:09;12.32;;;6.18;;
77740;SDS011;66919;51.006;4.630;2024-01-30T09:04:37;14.82;;;6.55;;
77740;SDS011;66919;51.006;4.630;2024-01-30T09:07:03;11.07;;;5.80;;
77740;SDS011;66919;51.006;4.630;2024-01-30T09:09:31;13.73;;;5.88;;
77740;SDS011;66919;51.006;4.630;2024-01-30T09:11:56;11.57;;;6.47;;
77740;SDS011;66919;51.006;4.630;2024-01-30T09:14:27;10.98;;;6.72;;
77740;SDS011;66919;51.006;4.630;2024-01-30T09:16:52;15.18;;;7.32;;
77740;SDS011;66919;51.006;4.630;2024-01-30T09:19:18;16.60;;;7.88;;
77740;SDS011;66919;51.006;4.630;2024-01-30T09:21:43;15.95;;;6.97;;
77740;SDS011;66919;51.006;4.630;2024-01-30T09:24:09;15.82;;;7.43;;
77740;SDS011;66919;51.006;4.630;2024-01-30T09:26:36;11.70;;;6.68;;
77740;SDS011;66919;51.006;4.630;2024-01-30T09:29:02;11.50;;;6.47;;
77740;SDS011;66919;51.006;4.630;2024-01-30T09:31:27;10.43;;;6.68;;
77740;SDS011;66919;51.006;4.630;2024-01-30T09:33:53;12.63;;;6.43;;
77740;SDS011;66919;51.006;4.630;2024-01-30T09:36:19;13.75;;;6.78;;
77740;SDS011;66919;51.006;4.630;2024-01-30T09:38:45;17.02;;;7.55;;
77740;SDS011;66919;51.006;4.630;2024-01-30T09:41:11;10.23;;;5.70;;
77740;SDS011;66919;51.006;4.630;2024-01-30T09:43:38;16.05;;;7.50;;
77740;SDS011;66919;51.006;4.630;2024-01-30T09:46:07;13.15;;;6.70;;
77740;SDS011;66919;51.006;4.630;2024-01-30T09:48:38;12.25;;;7.38;;
77740;SDS011;66919;51.006;4.630;2024-01-30T09:51:06;11.10;;;5.90;;
77740;SDS011;66919;51.006;4.630;2024-01-30T09:53:33;14.85;;;7.35;;
77740;SDS011;66919;51.006;4.630;2024-01-30T09:55:58;15.23;;;6.82;;
77740;SDS011;66919;51.006;4.630;2024-01-30T09:58:25;15.45;;;7.60;;
77740;SDS011;66919;51.006;4.630;2024-01-30T10:00:51;11.45;;;6.13;;
77740;SDS011;66919;51.006;4.630;2024-01-30T10:03:18;12.10;;;7.30;;
77740;SDS011;66919;51.006;4.630;2024-01-30T10:05:49;19.45;;;8.27;;
77740;SDS011;66919;51.006;4.630;2024-01-30T10:08:19;9.23;;;5.82;;
77740;SDS011;66919;51.006;4.630;2024-01-30T10:10:46;13.27;;;6.95;;
77740;SDS011;66919;51.006;4.630;2024-01-30T10:13:12;15.38;;;7.25;;
77740;SDS011;66919;51.006;4.630;2024-01-30T10:15:37;11.90;;;7.50;;
77740;SDS011;66919;51.006;4.630;2024-01-30T10:18:04;11.98;;;6.95;;
77740;SDS011;66919;51.006;4.630;2024-01-30T10:20:31;12.55;;;7.78;;
77740;SDS011;66919;51.006;4.630;2024-01-30T10:22:57;8.95;;;6.90;;
77740;SDS011;66919;51.006;4.630;2024-01-30T10:25:25;16.13;;;8.52;;
77740;SDS011;66919;51.006;4.630;2024-01-30T10:27:54;18.27;;;9.30;;
77740;SDS011;66919;51.006;4.630;2024-01-30T10:30:20;13.02;;;8.73;;
77740;SDS011;66919;51.006;4.630;2024-01-30T10:32:47;15.48;;;7.97;;
77740;SDS011;66919;51.006;4.630;2024-01-30T10:35:12;12.88;;;7.78;;
77740;SDS011;66919;51.006;4.630;2024-01-30T10:37:38;16.42;;;9.13;;
77740;SDS011;66919;51.006;4.630;2024-01-30T10:40:04;18.02;;;8.80;;
77740;SDS011;66919;51.006;4.630;2024-01-30T10:42:33;20.27;;;9.73;;
77740;SDS011;66919;51.006;4.630;2024-01-30T10:45:11;14.40;;;9.18;;
77740;SDS011;66919;51.006;4.630;2024-01-30T10:47:39;14.35;;;9.82;;
77740;SDS011;66919;51.006;4.630;2024-01-30T10:50:07;15.88;;;9.50;;
77740;SDS011;66919;51.006;4.630;2024-01-30T10:52:33;16.98;;;8.90;;
77740;SDS011;66919;51.006;4.630;2024-01-30T10:55:00;15.80;;;9.05;;
77740;SDS011;66919;51.006;4.630;2024-01-30T10:57:26;17.63;;;8.70;;
77740;SDS011;66919;51.006;4.630;2024-01-30T10:59:56;13.13;;;8.23;;
77740;SDS011;66919;51.006;4.630;2024-01-30T11:02:23;20.02;;;8.57;;
77740;SDS011;66919;51.006;4.630;2024-01-30T11:04:54;14.15;;;8.88;;
77740;SDS011;66919;51.006;4.630;2024-01-30T11:07:25;15.52;;;8.68;;
77740;SDS011;66919;51.006;4.630;2024-01-30T11:12:26;10.77;;;4.68;;
77740;SDS011;66919;51.006;4.630;2024-01-30T11:17:50;6.60;;;3.55;;
77740;SDS011;66919;51.006;4.630;2024-01-30T11:20:19;8.18;;;2.55;;
77740;SDS011;66919;51.006;4.630;2024-01-30T11:22:56;5.97;;;1.92;;
77740;SDS011;66919;51.006;4.630;2024-01-30T11:25:22;4.78;;;1.80;;
77740;SDS011;66919;51.006;4.630;2024-01-30T11:27:50;3.88;;;1.65;;
77740;SDS011;66919;51.006;4.630;2024-01-30T11:30:31;4.35;;;1.80;;
77740;SDS011;66919;51.006;4.630;2024-01-30T11:33:06;6.05;;;1.50;;
77740;SDS011;66919;51.006;4.630;2024-01-30T11:35:43;5.38;;;1.88;;
77740;SDS011;66919;51.006;4.630;2024-01-30T11:38:13;4.50;;;1.42;;
77740;SDS011;66919;51.006;4.630;2024-01-30T11:40:39;5.70;;;1.60;;
77740;SDS011;66919;51.006;4.630;2024-01-30T11:43:07;3.03;;;1.77;;
77740;SDS011;66919;51.006;4.630;2024-01-30T11:45:34;4.03;;;1.63;;
77740;SDS011;66919;51.006;4.630;2024-01-30T11:48:01;7.20;;;1.67;;
77740;SDS011;66919;51.006;4.630;2024-01-30T11:50:34;4.68;;;1.30;;
77740;SDS011;66919;51.006;4.630;2024-01-30T11:53:00;6.03;;;1.48;;
77740;SDS011;66919;51.006;4.630;2024-01-30T11:55:26;5.35;;;1.40;;
77740;SDS011;66919;51.006;4.630;2024-01-30T11:57:57;1.23;;;0.90;;
77740;SDS011;66919;51.006;4.630;2024-01-30T12:00:23;2.42;;;1.10;;
77740;SDS011;66919;51.006;4.630;2024-01-30T12:02:50;4.03;;;1.45;;
77740;SDS011;66919;51.006;4.630;2024-01-30T12:05:18;2.40;;;0.65;;
77740;SDS011;66919;51.006;4.630;2024-01-30T12:07:45;1.63;;;1.17;;
77740;SDS011;66919;51.006;4.630;2024-01-30T12:10:12;3.63;;;0.88;;
77740;SDS011;66919;51.006;4.630;2024-01-30T12:12:39;3.00;;;0.90;;
77740;SDS011;66919;51.006;4.630;2024-01-30T12:15:06;4.13;;;0.73;;
77740;SDS011;66919;51.006;4.630;2024-01-30T12:17:33;3.67;;;0.70;;
77740;SDS011;66919;51.006;4.630;2024-01-30T12:20:05;4.28;;;0.85;;
77740;SDS011;66919;51.006;4.630;2024-01-30T12:22:33;4.97;;;0.75;;
77740;SDS011;66919;51.006;4.630;2024-01-30T12:25:01;3.70;;;0.63;;
77740;SDS011;66919;51.006;4.630;2024-01-30T12:27:26;1.60;;;0.70;;
77740;SDS011;66919;51.006;4.630;2024-01-30T12:29:56;8.77;;;1.20;;
77740;SDS011;66919;51.006;4.630;2024-01-30T12:32:23;4.03;;;0.70;;
77740;SDS011;66919;51.006;4.630;2024-01-30T12:34:49;2.10;;;0.52;;
77740;SDS011;66919;51.006;4.630;2024-01-30T12:37:14;1.52;;;0.60;;
77740;SDS011;66919;51.006;4.630;2024-01-30T12:39:44;2.55;;;0.82;;
77740;SDS011;66919;51.006;4.630;2024-01-30T12:42:10;4.93;;;0.85;;
77740;SDS011;66919;51.006;4.630;2024-01-30T12:44:36;15.52;;;1.00;;
77740;SDS011;66919;51.006;4.630;2024-01-30T12:47:05;2.88;;;0.70;;
77740;SDS011;66919;51.006;4.630;2024-01-30T12:49:33;1.30;;;0.47;;
77740;SDS011;66919;51.006;4.630;2024-01-30T12:51:59;1.40;;;0.75;;
77740;SDS011;66919;51.006;4.630;2024-01-30T12:54:25;6.32;;;0.82;;
77740;SDS011;66919;51.006;4.630;2024-01-30T12:56:50;4.60;;;0.80;;
77740;SDS011;66919;51.006;4.630;2024-01-30T12:59:16;6.00;;;0.95;;
77740;SDS011;66919;51.006;4.630;2024-01-30T13:01:41;5.47;;;0.80;;
77740;SDS011;66919;51.006;4.630;2024-01-30T13:04:07;2.00;;;0.60;;
77740;SDS011;66919;51.006;4.630;2024-01-30T13:06:33;4.35;;;0.82;;
77740;SDS011;66919;51.006;4.630;2024-01-30T13:08:58;2.35;;;0.77;;
77740;SDS011;66919;51.006;4.630;2024-01-30T13:11:24;3.50;;;0.95;;
77740;SDS011;66919;51.006;4.630;2024-01-30T13:13:50;2.42;;;0.68;;
77740;SDS011;66919;51.006;4.630;2024-01-30T13:16:16;1.88;;;0.70;;
77740;SDS011;66919;51.006;4.630;2024-01-30T13:18:43;3.50;;;0.57;;
77740;SDS011;66919;51.006;4.630;2024-01-30T13:21:09;2.88;;;1.00;;
77740;SDS011;66919;51.006;4.630;2024-01-30T13:23:35;2.45;;;0.90;;
77740;SDS011;66919;51.006;4.630;2024-01-30T13:26:00;2.63;;;1.00;;
77740;SDS011;66919;51.006;4.630;2024-01-30T13:28:26;2.88;;;0.90;;
77740;SDS011;66919;51.006;4.630;2024-01-30T13:30:52;5.07;;;0.80;;
77740;SDS011;66919;51.006;4.630;2024-01-30T13:33:18;5.07;;;1.00;;
77740;SDS011;66919;51.006;4.630;2024-01-30T13:35:43;4.28;;;1.20;;
77740;SDS011;66919;51.006;4.630;2024-01-30T13:38:09;4.47;;;1.40;;
77740;SDS011;66919;51.006;4.630;2024-01-30T13:40:35;7.25;;;1.33;;
77740;SDS011;66919;51.006;4.630;2024-01-30T13:43:01;2.05;;;0.80;;
77740;SDS011;66919;51.006;4.630;2024-01-30T13:45:27;3.00;;;1.05;;
77740;SDS011;66919;51.006;4.630;2024-01-30T13:47:52;9.38;;;1.15;;
77740;SDS011;66919;51.006;4.630;2024-01-30T13:50:19;5.50;;;1.50;;
77740;SDS011;66919;51.006;4.630;2024-01-30T13:52:45;3.47;;;0.93;;
77740;SDS011;66919;51.006;4.630;2024-01-30T13:55:11;7.57;;;1.02;;
77740;SDS011;66919;51.006;4.630;2024-01-30T13:57:36;6.78;;;1.00;;
77740;SDS011;66919;51.006;4.630;2024-01-30T14:00:03;2.10;;;0.77;;
77740;SDS011;66919;51.006;4.630;2024-01-30T14:02:32;3.63;;;1.02;;
77740;SDS011;66919;51.006;4.630;2024-01-30T14:04:57;4.65;;;0.80;;
77740;SDS011;66919;51.006;4.630;2024-01-30T14:07:23;3.30;;;1.02;;
77740;SDS011;66919;51.006;4.630;2024-01-30T14:09:49;5.68;;;1.30;;
77740;SDS011;66919;51.006;4.630;2024-01-30T14:12:15;5.80;;;1.35;;
77740;SDS011;66919;51.006;4.630;2024-01-30T14:14:41;3.10;;;1.45;;
77740;SDS011;66919;51.006;4.630;2024-01-30T14:17:07;3.40;;;1.92;;
77740;SDS011;66919;51.006;4.630;2024-01-30T14:19:33;7.53;;;1.45;;
77740;SDS011;66919;51.006;4.630;2024-01-30T14:22:00;4.18;;;1.42;;
77740;SDS011;66919;51.006;4.630;2024-01-30T14:24:26;5.15;;;1.40;;
77740;SDS011;66919;51.006;4.630;2024-01-30T14:26:52;5.53;;;1.08;;
77740;SDS011;66919;51.006;4.630;2024-01-30T14:29:17;6.55;;;1.40;;
77740;SDS011;66919;51.006;4.630;2024-01-30T14:31:43;7.53;;;1.65;;
77740;SDS011;66919;51.006;4.630;2024-01-30T14:34:09;6.80;;;1.25;;
77740;SDS011;66919;51.006;4.630;2024-01-30T14:36:36;3.20;;;1.30;;
77740;SDS011;66919;51.006;4.630;2024-01-30T14:39:02;1.45;;;1.00;;
77740;SDS011;66919;51.006;4.630;2024-01-30T14:41:28;5.43;;;1.23;;
77740;SDS011;66919;51.006;4.630;2024-01-30T14:43:54;4.07;;;1.10;;